Time,TemperatureF,DewpointF,PressureIn,WindDirection,WindDirectionDegrees,WindSpeedMPH,WindSpeedGustMPH,Humidity,HourlyPrecipIn,Conditions,Clouds,dailyrainin,SoftwareType,DateUTC
2013-04-22 00:00:00,43.8,39.0,30.65,ENE,78,0.0,0.0,83,0.00,,,0.00,VWS V14.01,2013-04-22 04:00:00,
2013-04-22 00:02:00,43.8,39.0,30.65,ENE,78,0.0,0.0,83,0.00,,,0.00,VWS V14.01,2013-04-22 04:02:00,
2013-04-22 00:03:00,43.8,39.0,30.65,ENE,78,0.0,0.0,83,0.00,,,0.00,VWS V14.01,2013-04-22 04:03:00,
2013-04-22 00:04:00,43.7,38.9,30.65,ENE,78,0.0,0.0,83,0.00,,,0.00,VWS V14.01,2013-04-22 04:04:00,
2013-04-22 00:05:00,43.7,38.9,30.64,ENE,78,0.0,0.0,83,0.00,,,0.00,VWS V14.01,2013-04-22 04:05:00,
2013-04-22 00:11:00,43.6,38.8,30.65,ENE,78,0.0,0.0,83,0.00,,,0.00,VWS V14.01,2013-04-22 04:11:00,
2013-04-22 00:16:00,43.4,38.9,30.64,ENE,78,0.0,0.0,84,0.00,,,0.00,VWS V14.01,2013-04-22 04:16:00,
2013-04-22 00:22:00,43.2,38.7,30.65,ENE,78,0.0,0.0,84,0.00,,,0.00,VWS V14.01,2013-04-22 04:22:00,
2013-04-22 00:26:00,43.1,38.6,30.65,ENE,78,0.0,0.0,84,0.00,,,0.00,VWS V14.01,2013-04-22 04:26:00,
2013-04-22 00:30:00,43.9,39.1,30.65,ENE,78,0.0,0.0,83,0.00,,,0.00,VWS V14.01,2013-04-22 04:30:00,
2013-04-22 00:32:00,42.9,38.4,30.64,ENE,78,0.0,0.0,84,0.00,,,0.00,VWS V14.01,2013-04-22 04:32:00,
2013-04-22 00:37:00,42.7,38.2,30.65,ENE,78,0.0,0.0,84,0.00,,,0.00,VWS V14.01,2013-04-22 04:37:00,
2013-04-22 00:43:00,42.6,38.4,30.65,ENE,78,0.0,0.0,85,0.00,,,0.00,VWS V14.01,2013-04-22 04:43:00,
2013-04-22 00:49:00,42.4,38.2,30.65,ENE,78,0.0,0.0,85,0.00,,,0.00,VWS V14.01,2013-04-22 04:49:00,
2013-04-22 00:55:00,42.3,38.4,30.65,ENE,78,0.0,0.0,86,0.00,,,0.00,VWS V14.01,2013-04-22 04:55:00,
2013-04-22 01:00:00,42.2,38.3,30.65,ENE,78,0.0,1.0,86,0.00,,,0.00,VWS V14.01,2013-04-22 05:00:00,
2013-04-22 01:06:00,42.2,38.3,30.65,ENE,78,0.0,0.0,86,0.00,,,0.00,VWS V14.01,2013-04-22 05:06:00,
2013-04-22 01:12:00,42.2,38.3,30.65,SE,132,0.0,1.0,86,0.00,,,0.00,VWS V14.01,2013-04-22 05:12:00,
2013-04-22 01:18:00,42.2,38.3,30.65,ENE,65,1.0,2.0,86,0.00,,,0.00,VWS V14.01,2013-04-22 05:18:00,
2013-04-22 01:24:00,42.4,38.5,30.64,ENE,72,0.0,4.0,86,0.00,,,0.00,VWS V14.01,2013-04-22 05:24:00,
2013-04-22 01:29:00,42.6,38.4,30.64,ENE,69,0.0,4.0,85,0.00,,,0.00,VWS V14.01,2013-04-22 05:29:00,
2013-04-22 01:30:00,42.8,38.3,30.65,ENE,78,0.0,0.0,84,0.00,,,0.00,VWS V14.01,2013-04-22 05:30:00,
2013-04-22 01:35:00,42.7,38.2,30.64,ENE,67,0.0,4.0,84,0.00,,,0.00,VWS V14.01,2013-04-22 05:35:00,
2013-04-22 01:41:00,42.8,38.3,30.64,NE,52,0.0,3.0,84,0.00,,,0.00,VWS V14.01,2013-04-22 05:41:00,
2013-04-22 01:47:00,42.9,38.1,30.64,ENE,71,0.0,3.0,83,0.00,,,0.00,VWS V14.01,2013-04-22 05:47:00,
2013-04-22 01:53:00,42.9,38.1,30.64,NE,35,0.0,3.0,83,0.00,,,0.00,VWS V14.01,2013-04-22 05:53:00,
2013-04-22 01:58:00,42.9,38.1,30.64,ENE,57,0.0,3.0,83,0.00,,,0.00,VWS V14.01,2013-04-22 05:58:00,
2013-04-22 02:00:00,42.2,38.3,30.65,ENE,78,0.0,2.0,86,0.00,,,0.00,VWS V14.01,2013-04-22 06:00:00,
2013-04-22 02:04:00,42.8,37.7,30.64,East,80,0.0,4.0,82,0.00,,,0.00,VWS V14.01,2013-04-22 06:04:00,
2013-04-22 02:10:00,42.7,37.6,30.63,East,79,0.0,0.0,82,0.00,,,0.00,VWS V14.01,2013-04-22 06:10:00,
2013-04-22 02:16:00,42.6,37.2,30.63,NE,52,0.0,4.0,81,0.00,,,0.00,VWS V14.01,2013-04-22 06:16:00,
2013-04-22 02:22:00,42.5,36.8,30.63,ENE,75,0.0,7.0,80,0.00,,,0.00,VWS V14.01,2013-04-22 06:22:00,
2013-04-22 02:27:00,42.4,36.7,30.63,ENE,69,0.0,7.0,80,0.00,,,0.00,VWS V14.01,2013-04-22 06:27:00,
2013-04-22 02:30:00,42.7,38.2,30.64,ENE,67,0.0,4.0,84,0.00,,,0.00,VWS V14.01,2013-04-22 06:30:00,
2013-04-22 02:33:00,42.3,36.3,30.63,ENE,69,0.0,7.0,79,0.00,,,0.00,VWS V14.01,2013-04-22 06:33:00,
2013-04-22 02:39:00,42.2,36.2,30.63,ENE,69,0.0,0.0,79,0.00,,,0.00,VWS V14.01,2013-04-22 06:39:00,
2013-04-22 02:45:00,42.0,36.0,30.62,ENE,69,0.0,0.0,79,0.00,,,0.00,VWS V14.01,2013-04-22 06:45:00,
2013-04-22 02:51:00,41.8,35.8,30.62,ENE,68,0.0,6.0,79,0.00,,,0.00,VWS V14.01,2013-04-22 06:51:00,
2013-04-22 02:56:00,41.7,35.4,30.62,ENE,62,0.0,6.0,78,0.00,,,0.00,VWS V14.01,2013-04-22 06:56:00,
2013-04-22 03:00:00,42.8,37.7,30.64,East,80,0.0,4.0,82,0.00,,,0.00,VWS V14.01,2013-04-22 07:00:00,
2013-04-22 03:02:00,41.6,35.3,30.62,ENE,65,0.0,6.0,78,0.00,,,0.00,VWS V14.01,2013-04-22 07:02:00,
2013-04-22 03:08:00,41.5,34.8,30.62,ENE,64,0.0,3.0,77,0.00,,,0.00,VWS V14.01,2013-04-22 07:08:00,
2013-04-22 03:14:00,41.4,34.7,30.62,ENE,64,0.0,3.0,77,0.00,,,0.00,VWS V14.01,2013-04-22 07:14:00,
2013-04-22 03:20:00,41.2,34.5,30.62,ENE,60,0.0,4.0,77,0.00,,,0.00,VWS V14.01,2013-04-22 07:20:00,
2013-04-22 03:25:00,41.1,34.5,30.62,ENE,60,0.0,4.0,77,0.00,,,0.00,VWS V14.01,2013-04-22 07:25:00,
2013-04-22 03:30:00,42.3,36.3,30.63,ENE,69,0.0,7.0,79,0.00,,,0.00,VWS V14.01,2013-04-22 07:30:00,
2013-04-22 03:31:00,40.9,34.6,30.62,ENE,60,0.0,4.0,78,0.00,,,0.00,VWS V14.01,2013-04-22 07:31:00,
2013-04-22 03:37:00,40.7,34.4,30.61,ENE,61,0.0,0.0,78,0.00,,,0.00,VWS V14.01,2013-04-22 07:37:00,
2013-04-22 03:43:00,40.5,34.5,30.61,NE,49,2.0,3.0,79,0.00,,,0.00,VWS V14.01,2013-04-22 07:43:00,
2013-04-22 03:49:00,40.3,34.3,30.61,NE,56,0.0,4.0,79,0.00,,,0.00,VWS V14.01,2013-04-22 07:49:00,
2013-04-22 03:55:00,40.1,34.4,30.61,ENE,58,0.0,4.0,80,0.00,,,0.00,VWS V14.01,2013-04-22 07:55:00,
2013-04-22 04:00:00,40.0,34.3,30.61,ENE,58,0.0,4.0,80,0.00,,,0.00,VWS V14.01,2013-04-22 08:00:00,
2013-04-22 04:06:00,39.8,34.1,30.61,NE,52,0.0,0.0,80,0.00,,,0.00,VWS V14.01,2013-04-22 08:06:00,
2013-04-22 04:12:00,39.6,34.3,30.61,NE,53,0.0,1.0,81,0.00,,,0.00,VWS V14.01,2013-04-22 08:12:00,
2013-04-22 04:18:00,39.3,34.0,30.61,NNE,30,0.0,3.0,81,0.00,,,0.00,VWS V14.01,2013-04-22 08:18:00,
2013-04-22 04:23:00,39.2,34.2,30.61,NNE,31,0.0,3.0,82,0.00,,,0.00,VWS V14.01,2013-04-22 08:23:00,
2013-04-22 04:29:00,39.0,34.0,30.60,NNE,30,0.0,3.0,82,0.00,,,0.00,VWS V14.01,2013-04-22 08:29:00,
2013-04-22 04:30:00,40.8,34.5,30.62,ENE,61,0.0,4.0,78,0.00,,,0.00,VWS V14.01,2013-04-22 08:30:00,
2013-04-22 04:35:00,38.9,33.9,30.60,NE,34,0.0,3.0,82,0.00,,,0.00,VWS V14.01,2013-04-22 08:35:00,
2013-04-22 04:41:00,38.7,34.0,30.60,NE,38,0.0,3.0,83,0.00,,,0.00,VWS V14.01,2013-04-22 08:41:00,
2013-04-22 04:47:00,38.6,33.9,30.60,NE,42,0.0,4.0,83,0.00,,,0.00,VWS V14.01,2013-04-22 08:47:00,
2013-04-22 04:53:00,38.4,33.7,30.60,NE,42,0.0,4.0,83,0.00,,,0.00,VWS V14.01,2013-04-22 08:53:00,
2013-04-22 04:59:00,38.2,33.8,30.61,NE,42,0.0,4.0,84,0.00,,,0.00,VWS V14.01,2013-04-22 08:59:00,
2013-04-22 05:00:00,39.9,34.2,30.61,NE,53,0.0,4.0,80,0.00,,,0.00,VWS V14.01,2013-04-22 09:00:00,
2013-04-22 05:04:00,38.0,33.6,30.60,NE,42,0.0,4.0,84,0.00,,,0.00,VWS V14.01,2013-04-22 09:04:00,
2013-04-22 05:10:00,37.8,33.4,30.60,NE,41,0.0,0.0,84,0.00,,,0.00,VWS V14.01,2013-04-22 09:10:00,
2013-04-22 05:16:00,37.7,33.6,30.60,NNE,26,0.0,4.0,85,0.00,,,0.00,VWS V14.01,2013-04-22 09:16:00,
2013-04-22 05:22:00,37.5,33.4,30.61,NNE,27,0.0,4.0,85,0.00,,,0.00,VWS V14.01,2013-04-22 09:22:00,
2013-04-22 05:28:00,37.4,33.6,30.61,NNE,28,0.0,4.0,86,0.00,,,0.00,VWS V14.01,2013-04-22 09:28:00,
2013-04-22 05:30:00,38.9,33.9,30.60,NE,34,0.0,3.0,82,0.00,,,0.00,VWS V14.01,2013-04-22 09:30:00,
2013-04-22 05:33:00,37.2,33.4,30.62,NNE,28,0.0,4.0,86,0.00,,,0.00,VWS V14.01,2013-04-22 09:33:00,
2013-04-22 05:39:00,37.1,33.3,30.62,NNE,33,0.0,0.0,86,0.00,,,0.00,VWS V14.01,2013-04-22 09:39:00,
2013-04-22 05:45:00,36.9,33.4,30.62,NNE,33,0.0,2.0,87,0.00,,,0.00,VWS V14.01,2013-04-22 09:45:00,
2013-04-22 05:51:00,36.8,33.3,30.61,ENE,65,0.0,4.0,87,0.00,,,0.00,VWS V14.01,2013-04-22 09:51:00,
2013-04-22 05:56:00,36.6,33.4,30.62,ENE,65,0.0,4.0,88,0.00,,,0.00,VWS V14.01,2013-04-22 09:56:00,
2013-04-22 06:00:00,38.0,33.6,30.60,NE,42,0.0,4.0,84,0.00,,,0.00,VWS V14.01,2013-04-22 10:00:00,
2013-04-22 06:02:00,36.5,33.3,30.62,ENE,65,0.0,4.0,88,0.00,,,0.00,VWS V14.01,2013-04-22 10:02:00,
2013-04-22 06:08:00,36.4,33.5,30.62,NE,56,0.0,2.0,89,0.00,,,0.00,VWS V14.01,2013-04-22 10:08:00,
2013-04-22 06:14:00,36.3,33.4,30.62,NE,49,0.0,3.0,89,0.00,,,0.00,VWS V14.01,2013-04-22 10:14:00,
2013-04-22 06:20:00,36.3,33.4,30.62,NE,49,0.0,3.0,89,0.00,,,0.00,VWS V14.01,2013-04-22 10:20:00,
2013-04-22 06:26:00,36.2,33.3,30.63,NE,41,0.0,3.0,89,0.00,,,0.00,VWS V14.01,2013-04-22 10:26:00,
2013-04-22 06:30:00,37.2,33.4,30.62,NNE,28,0.0,4.0,86,0.00,,,0.00,VWS V14.01,2013-04-22 10:30:00,
2013-04-22 06:32:00,36.1,33.5,30.63,NE,46,0.0,3.0,90,0.00,,,0.00,VWS V14.01,2013-04-22 10:32:00,
2013-04-22 06:37:00,36.1,33.5,30.63,NE,46,0.0,0.0,90,0.00,,,0.00,VWS V14.01,2013-04-22 10:37:00,
2013-04-22 06:43:00,36.0,33.4,30.63,ENE,57,0.0,4.0,90,0.00,,,0.00,VWS V14.01,2013-04-22 10:43:00,
2013-04-22 06:49:00,35.9,33.3,30.63,NNE,25,0.0,4.0,90,0.00,,,0.00,VWS V14.01,2013-04-22 10:49:00,
2013-04-22 06:55:00,35.9,33.5,30.64,NE,44,0.0,4.0,91,0.00,,,0.00,VWS V14.01,2013-04-22 10:55:00,
2013-04-22 07:00:00,36.4,33.2,30.62,ENE,65,0.0,4.0,88,0.00,,,0.00,VWS V14.01,2013-04-22 11:00:00,
2013-04-22 07:01:00,35.9,33.5,30.64,NNE,21,0.0,4.0,91,0.00,,,0.00,VWS V14.01,2013-04-22 11:01:00,
2013-04-22 07:06:00,36.0,33.6,30.64,NNE,30,7.0,7.0,91,0.00,,,0.00,VWS V14.01,2013-04-22 11:06:00,
2013-04-22 07:12:00,36.1,33.7,30.64,NNE,28,0.0,7.0,91,0.00,,,0.00,VWS V14.01,2013-04-22 11:12:00,
2013-04-22 07:18:00,36.2,34.1,30.64,NE,47,3.0,7.0,92,0.00,,,0.00,VWS V14.01,2013-04-22 11:18:00,
2013-04-22 07:24:00,36.4,34.3,30.64,NE,37,1.0,7.0,92,0.00,,,0.00,VWS V14.01,2013-04-22 11:24:00,
2013-04-22 07:30:00,36.6,34.5,30.64,NE,40,0.0,7.0,92,0.00,,,0.00,VWS V14.01,2013-04-22 11:30:00,
2013-04-22 07:35:00,36.8,34.7,30.64,NE,49,5.0,12.0,92,0.00,,,0.00,VWS V14.01,2013-04-22 11:35:00,
2013-04-22 07:40:00,37.0,34.9,30.64,NE,38,3.0,6.0,92,0.00,,,0.00,VWS V14.01,2013-04-22 11:40:00,
2013-04-22 07:46:00,37.3,35.2,30.64,ENE,64,4.0,14.0,92,0.00,,,0.00,VWS V14.01,2013-04-22 11:46:00,
2013-04-22 07:52:00,37.7,35.3,30.64,NE,36,9.0,14.0,91,0.00,,,0.00,VWS V14.01,2013-04-22 11:52:00,
2013-04-22 07:58:00,38.0,35.6,30.64,NNE,32,4.0,14.0,91,0.00,,,0.00,VWS V14.01,2013-04-22 11:58:00,
2013-04-22 08:00:00,36.0,33.6,30.64,NNE,29,0.0,4.0,91,0.00,,,0.00,VWS V14.01,2013-04-22 12:00:00,
2013-04-22 08:03:00,38.3,35.6,30.64,NNE,30,5.0,14.0,90,0.00,,,0.00,VWS V14.01,2013-04-22 12:03:00,
2013-04-22 08:09:00,38.7,35.7,30.64,ENE,59,4.0,14.0,89,0.00,,,0.00,VWS V14.01,2013-04-22 12:09:00,
2013-04-22 08:15:00,39.0,35.8,30.64,ENE,68,1.0,14.0,88,0.00,,,0.00,VWS V14.01,2013-04-22 12:15:00,
2013-04-22 08:21:00,39.3,35.8,30.64,ENE,76,9.0,16.0,87,0.00,,,0.00,VWS V14.01,2013-04-22 12:21:00,
2013-04-22 08:26:00,39.8,36.0,30.64,NE,46,2.0,16.0,86,0.00,,,0.00,VWS V14.01,2013-04-22 12:26:00,
2013-04-22 08:30:00,36.8,34.7,30.64,NE,49,5.0,12.0,92,0.00,,,0.00,VWS V14.01,2013-04-22 12:30:00,
2013-04-22 08:32:00,40.1,35.7,30.64,East,92,1.0,16.0,84,0.00,,,0.00,VWS V14.01,2013-04-22 12:32:00,
2013-04-22 08:38:00,40.4,35.7,30.63,ENE,57,0.0,10.0,83,0.00,,,0.00,VWS V14.01,2013-04-22 12:38:00,
2013-04-22 08:43:00,40.9,35.8,30.64,NE,42,5.0,10.0,82,0.00,,,0.00,VWS V14.01,2013-04-22 12:43:00,
2013-04-22 08:49:00,41.5,36.4,30.64,North,355,0.0,10.0,82,0.00,,,0.00,VWS V14.01,2013-04-22 12:49:00,
2013-04-22 08:55:00,42.1,36.4,30.64,NNE,32,4.0,10.0,80,0.00,,,0.00,VWS V14.01,2013-04-22 12:55:00,
2013-04-22 09:00:00,38.4,35.7,30.64,NNE,15,2.0,14.0,90,0.00,,,0.00,VWS V14.01,2013-04-22 13:00:00,
2013-04-22 09:01:00,42.6,35.9,30.63,NE,46,3.0,13.0,77,0.00,,,0.00,VWS V14.01,2013-04-22 13:01:00,
2013-04-22 09:07:00,43.3,36.6,30.63,ENE,75,0.0,5.0,77,0.00,,,0.00,VWS V14.01,2013-04-22 13:07:00,
2013-04-22 09:12:00,44.1,36.7,30.64,East,79,5.0,14.0,75,0.00,,,0.00,VWS V14.01,2013-04-22 13:12:00,
2013-04-22 09:18:00,44.5,36.4,30.64,ENE,75,5.0,14.0,73,0.00,,,0.00,VWS V14.01,2013-04-22 13:18:00,
2013-04-22 09:24:00,45.7,37.5,30.63,NE,40,3.0,14.0,73,0.00,,,0.00,VWS V14.01,2013-04-22 13:24:00,
2013-04-22 09:30:00,46.3,36.7,30.63,ENE,58,0.0,14.0,69,0.00,,,0.00,VWS V14.01,2013-04-22 13:30:00,
2013-04-22 09:35:00,46.5,35.4,30.63,ENE,59,0.0,14.0,65,0.00,,,0.00,VWS V14.01,2013-04-22 13:35:00,
2013-04-22 09:40:00,46.8,34.5,30.63,ENE,74,7.0,14.0,62,0.00,,,0.00,VWS V14.01,2013-04-22 13:40:00,
2013-04-22 09:46:00,46.8,36.4,30.63,NNE,24,3.0,14.0,67,0.00,,,0.00,VWS V14.01,2013-04-22 13:46:00,
2013-04-22 09:52:00,47.5,35.1,30.63,North,355,2.0,14.0,62,0.00,,,0.00,VWS V14.01,2013-04-22 13:52:00,
2013-04-22 09:58:00,47.9,35.5,30.63,NE,42,0.0,14.0,62,0.00,,,0.00,VWS V14.01,2013-04-22 13:58:00,
2013-04-22 10:00:00,43.1,36.4,30.63,ENE,63,0.0,13.0,77,0.00,,,0.00,VWS V14.01,2013-04-22 14:00:00,
2013-04-22 10:04:00,48.5,36.5,30.63,NNE,25,5.0,14.0,63,0.00,,,0.00,VWS V14.01,2013-04-22 14:04:00,
2013-04-22 10:10:00,48.8,35.1,30.63,ENE,76,8.0,12.0,59,0.00,,,0.00,VWS V14.01,2013-04-22 14:10:00,
2013-04-22 10:16:00,49.0,35.3,30.62,NE,56,2.0,13.0,59,0.00,,,0.00,VWS V14.01,2013-04-22 14:16:00,
2013-04-22 10:21:00,49.6,35.9,30.62,NNE,26,9.0,15.0,59,0.00,,,0.00,VWS V14.01,2013-04-22 14:21:00,
2013-04-22 10:27:00,50.0,34.9,30.62,North,360,4.0,17.0,56,0.00,,,0.00,VWS V14.01,2013-04-22 14:27:00,
2013-04-22 10:30:00,46.5,35.4,30.63,ENE,59,0.0,14.0,65,0.00,,,0.00,VWS V14.01,2013-04-22 14:30:00,
2013-04-22 10:33:00,50.1,34.6,30.62,NE,42,2.0,17.0,55,0.00,,,0.00,VWS V14.01,2013-04-22 14:33:00,
2013-04-22 10:39:00,50.2,36.0,30.61,NE,51,3.0,12.0,58,0.00,,,0.00,VWS V14.01,2013-04-22 14:39:00,
2013-04-22 10:45:00,50.7,34.7,30.61,ENE,69,12.0,16.0,54,0.00,,,0.00,VWS V14.01,2013-04-22 14:45:00,
2013-04-22 10:50:00,51.0,33.5,30.61,NNE,24,6.0,17.0,51,0.00,,,0.00,VWS V14.01,2013-04-22 14:50:00,
2013-04-22 10:56:00,51.3,34.8,30.61,NE,37,5.0,17.0,53,0.00,,,0.00,VWS V14.01,2013-04-22 14:56:00,
2013-04-22 11:00:00,48.6,35.8,30.63,NE,40,3.0,14.0,61,0.00,,,0.00,VWS V14.01,2013-04-22 15:00:00,
2013-04-22 11:02:00,52.0,34.5,30.61,ENE,59,11.0,17.0,51,0.00,,,0.00,VWS V14.01,2013-04-22 15:02:00,
2013-04-22 11:08:00,52.1,34.0,30.60,ENE,64,2.0,10.0,50,0.00,,,0.00,VWS V14.01,2013-04-22 15:08:00,
2013-04-22 11:14:00,52.7,35.6,30.60,NE,52,12.0,12.0,52,0.00,,,0.00,VWS V14.01,2013-04-22 15:14:00,
2013-04-22 11:19:00,52.9,34.8,30.60,NE,36,3.0,12.0,50,0.00,,,0.00,VWS V14.01,2013-04-22 15:19:00,
2013-04-22 11:25:00,53.5,34.8,30.60,NE,53,6.0,13.0,49,0.00,,,0.00,VWS V14.01,2013-04-22 15:25:00,
2013-04-22 11:30:00,50.1,33.7,30.62,ENE,63,10.0,17.0,53,0.00,,,0.00,VWS V14.01,2013-04-22 15:30:00,
2013-04-22 11:31:00,53.6,34.9,30.59,NNE,25,8.0,16.0,49,0.00,,,0.00,VWS V14.01,2013-04-22 15:31:00,
2013-04-22 11:37:00,54.0,35.8,30.59,NNE,33,5.0,9.0,50,0.00,,,0.00,VWS V14.01,2013-04-22 15:37:00,
2013-04-22 11:42:00,53.9,33.1,30.59,NE,36,3.0,15.0,45,0.00,,,0.00,VWS V14.01,2013-04-22 15:42:00,
2013-04-22 11:48:00,54.0,33.7,30.59,North,5,2.0,15.0,46,0.00,,,0.00,VWS V14.01,2013-04-22 15:48:00,
2013-04-22 11:54:00,54.8,34.4,30.59,ENE,65,5.0,15.0,46,0.00,,,0.00,VWS V14.01,2013-04-22 15:54:00,
2013-04-22 12:00:00,55.5,36.2,30.58,NE,52,0.0,15.0,48,0.00,,,0.00,VWS V14.01,2013-04-22 16:00:00,
2013-04-22 12:05:00,55.4,34.4,30.58,ENE,71,3.0,15.0,45,0.00,,,0.00,VWS V14.01,2013-04-22 16:05:00,
2013-04-22 12:10:00,55.5,34.0,30.58,NE,53,5.0,6.0,44,0.00,,,0.00,VWS V14.01,2013-04-22 16:10:00,
2013-04-22 12:16:00,55.5,34.5,30.58,NNE,24,7.0,11.0,45,0.00,,,0.00,VWS V14.01,2013-04-22 16:16:00,
2013-04-22 12:22:00,55.8,35.3,30.58,NE,50,6.0,11.0,46,0.00,,,0.00,VWS V14.01,2013-04-22 16:22:00,
2013-04-22 12:28:00,55.7,34.1,30.57,NE,37,6.0,12.0,44,0.00,,,0.00,VWS V14.01,2013-04-22 16:28:00,
2013-04-22 12:30:00,54.0,33.7,30.60,NNE,32,9.0,16.0,46,0.00,,,0.00,VWS V14.01,2013-04-22 16:30:00,
2013-04-22 12:34:00,56.0,35.5,30.57,ENE,66,4.0,15.0,46,0.00,,,0.00,VWS V14.01,2013-04-22 16:34:00,
2013-04-22 12:40:00,55.8,32.5,30.56,ENE,68,3.0,15.0,41,0.00,,,0.00,VWS V14.01,2013-04-22 16:40:00,
2013-04-22 12:45:00,56.3,37.4,30.56,ENE,61,5.0,15.0,49,0.00,,,0.00,VWS V14.01,2013-04-22 16:45:00,
2013-04-22 12:51:00,56.6,32.6,30.55,ENE,78,1.0,15.0,40,0.00,,,0.00,VWS V14.01,2013-04-22 16:51:00,
2013-04-22 12:57:00,57.0,34.2,30.55,NNE,30,5.0,15.0,42,0.00,,,0.00,VWS V14.01,2013-04-22 16:57:00,
2013-04-22 13:00:00,55.4,34.4,30.58,ENE,71,3.0,15.0,45,0.00,,,0.00,VWS V14.01,2013-04-22 17:00:00,
2013-04-22 13:03:00,57.2,36.6,30.55,NE,38,7.0,15.0,46,0.00,,,0.00,VWS V14.01,2013-04-22 17:03:00,
2013-04-22 13:08:00,57.3,34.4,30.54,SE,144,7.0,17.0,42,0.00,,,0.00,VWS V14.01,2013-04-22 17:08:00,
2013-04-22 13:14:00,57.7,32.9,30.54,ENE,74,3.0,17.0,39,0.00,,,0.00,VWS V14.01,2013-04-22 17:14:00,
2013-04-22 13:20:00,58.0,35.1,30.54,ENE,66,5.0,17.0,42,0.00,,,0.00,VWS V14.01,2013-04-22 17:20:00,
2013-04-22 13:26:00,58.0,36.2,30.54,ENE,59,9.0,17.0,44,0.00,,,0.00,VWS V14.01,2013-04-22 17:26:00,
2013-04-22 13:30:00,56.0,34.4,30.57,NE,54,3.0,15.0,44,0.00,,,0.00,VWS V14.01,2013-04-22 17:30:00,
2013-04-22 13:31:00,58.3,35.9,30.53,NNE,26,8.0,17.0,43,0.00,,,0.00,VWS V14.01,2013-04-22 17:31:00,
2013-04-22 13:37:00,58.6,35.0,30.53,ENE,71,0.0,7.0,41,0.00,,,0.00,VWS V14.01,2013-04-22 17:37:00,
2013-04-22 13:43:00,59.0,36.6,30.53,ENE,65,0.0,10.0,43,0.00,,,0.00,VWS V14.01,2013-04-22 17:43:00,
2013-04-22 13:49:00,59.0,34.7,30.53,SE,145,4.0,12.0,40,0.00,,,0.00,VWS V14.01,2013-04-22 17:49:00,
2013-04-22 13:55:00,59.0,36.0,30.53,North,355,11.0,13.0,42,0.00,,,0.00,VWS V14.01,2013-04-22 17:55:00,
2013-04-22 14:00:00,59.0,35.3,30.52,East,92,0.0,15.0,41,0.00,,,0.00,VWS V14.01,2013-04-22 18:00:00,
2013-04-22 14:06:00,59.1,33.5,30.52,ESE,123,0.0,6.0,38,0.00,,,0.00,VWS V14.01,2013-04-22 18:06:00,
2013-04-22 14:12:00,59.4,37.5,30.52,SE,141,0.0,13.0,44,0.00,,,0.00,VWS V14.01,2013-04-22 18:12:00,
2013-04-22 14:18:00,59.3,36.2,30.51,ESE,111,3.0,13.0,42,0.00,,,0.00,VWS V14.01,2013-04-22 18:18:00,
2013-04-22 14:24:00,59.8,36.1,30.51,NE,52,0.0,13.0,41,0.00,,,0.00,VWS V14.01,2013-04-22 18:24:00,
2013-04-22 14:30:00,60.1,38.1,30.51,NNE,28,0.0,13.0,44,0.00,,,0.00,VWS V14.01,2013-04-22 18:30:00,
2013-04-22 14:35:00,60.5,38.5,30.51,NE,49,3.0,13.0,44,0.00,,,0.00,VWS V14.01,2013-04-22 18:35:00,
2013-04-22 14:41:00,60.4,37.2,30.50,NNE,33,3.0,13.0,42,0.00,,,0.00,VWS V14.01,2013-04-22 18:41:00,
2013-04-22 14:47:00,60.6,36.8,30.51,NE,53,5.0,13.0,41,0.00,,,0.00,VWS V14.01,2013-04-22 18:47:00,
2013-04-22 14:53:00,61.1,37.9,30.50,NNE,24,8.0,13.0,42,0.00,,,0.00,VWS V14.01,2013-04-22 18:53:00,
2013-04-22 14:58:00,61.2,39.7,30.50,NE,36,6.0,13.0,45,0.00,,,0.00,VWS V14.01,2013-04-22 18:58:00,
2013-04-22 15:00:00,59.4,35.1,30.52,SE,138,5.0,15.0,40,0.00,,,0.00,VWS V14.01,2013-04-22 19:00:00,
2013-04-22 15:04:00,61.3,39.8,30.50,NE,40,1.0,13.0,45,0.00,,,0.00,VWS V14.01,2013-04-22 19:04:00,
2013-04-22 15:10:00,61.3,39.2,30.50,ESE,110,2.0,12.0,44,0.00,,,0.00,VWS V14.01,2013-04-22 19:10:00,
2013-04-22 15:16:00,61.5,39.4,30.50,NNE,18,0.0,12.0,44,0.00,,,0.00,VWS V14.01,2013-04-22 19:16:00,
2013-04-22 15:21:00,62.3,38.3,30.49,South,171,1.0,12.0,41,0.00,,,0.00,VWS V14.01,2013-04-22 19:21:00,
2013-04-22 15:27:00,62.0,36.1,30.49,NE,48,10.0,13.0,38,0.00,,,0.00,VWS V14.01,2013-04-22 19:27:00,
2013-04-22 15:30:00,60.5,38.5,30.51,NE,49,3.0,13.0,44,0.00,,,0.00,VWS V14.01,2013-04-22 19:30:00,
2013-04-22 15:33:00,61.8,35.3,30.48,NE,55,0.0,13.0,37,0.00,,,0.00,VWS V14.01,2013-04-22 19:33:00,
2013-04-22 15:39:00,61.7,37.2,30.48,NE,51,0.0,10.0,40,0.00,,,0.00,VWS V14.01,2013-04-22 19:39:00,
2013-04-22 15:44:00,62.1,38.8,30.48,SSW,199,0.0,10.0,42,0.00,,,0.00,VWS V14.01,2013-04-22 19:44:00,
2013-04-22 15:50:00,62.5,35.9,30.48,East,82,4.0,12.0,37,0.00,,,0.00,VWS V14.01,2013-04-22 19:50:00,
2013-04-22 15:56:00,62.3,36.4,30.47,NNE,13,0.0,12.0,38,0.00,,,0.00,VWS V14.01,2013-04-22 19:56:00,
2013-04-22 16:00:00,61.3,37.4,30.50,NE,37,10.0,15.0,41,0.00,,,0.00,VWS V14.01,2013-04-22 20:00:00,
2013-04-22 16:02:00,62.7,37.4,30.47,NE,56,4.0,12.0,39,0.00,,,0.00,VWS V14.01,2013-04-22 20:02:00,
2013-04-22 16:07:00,62.7,41.1,30.47,ENE,57,7.0,9.0,45,0.00,,,0.00,VWS V14.01,2013-04-22 20:07:00,
2013-04-22 16:13:00,62.7,38.0,30.47,NE,50,6.0,11.0,40,0.00,,,0.00,VWS V14.01,2013-04-22 20:13:00,
2013-04-22 16:19:00,62.6,37.3,30.47,NNE,32,0.0,11.0,39,0.00,,,0.00,VWS V14.01,2013-04-22 20:19:00,
2013-04-22 16:25:00,62.4,37.8,30.47,NE,56,2.0,11.0,40,0.00,,,0.00,VWS V14.01,2013-04-22 20:25:00,
2013-04-22 16:30:00,61.8,38.5,30.46,ENE,71,4.0,11.0,42,0.00,,,0.00,VWS V14.01,2013-04-22 20:30:00,
2013-04-22 16:36:00,61.8,37.9,30.46,NNE,31,0.0,3.0,41,0.00,,,0.00,VWS V14.01,2013-04-22 20:36:00,
2013-04-22 16:42:00,61.8,37.2,30.46,ENE,60,12.0,12.0,40,0.00,,,0.00,VWS V14.01,2013-04-22 20:42:00,
2013-04-22 16:48:00,62.2,39.5,30.46,ENE,63,1.0,12.0,43,0.00,,,0.00,VWS V14.01,2013-04-22 20:48:00,
2013-04-22 16:53:00,62.3,37.7,30.45,NNE,33,0.0,12.0,40,0.00,,,0.00,VWS V14.01,2013-04-22 20:53:00,
2013-04-22 16:59:00,62.0,36.1,30.45,ENE,57,5.0,12.0,38,0.00,,,0.00,VWS V14.01,2013-04-22 20:59:00,
2013-04-22 17:00:00,62.7,37.4,30.47,NNE,32,9.0,12.0,39,0.00,,,0.00,VWS V14.01,2013-04-22 21:00:00,
2013-04-22 17:05:00,61.7,39.6,30.45,NE,37,2.0,12.0,44,0.00,,,0.00,VWS V14.01,2013-04-22 21:05:00,
2013-04-22 17:11:00,61.9,38.6,30.45,North,5,5.0,9.0,42,0.00,,,0.00,VWS V14.01,2013-04-22 21:11:00,
2013-04-22 17:16:00,62.0,38.7,30.45,NNE,28,3.0,9.0,42,0.00,,,0.00,VWS V14.01,2013-04-22 21:16:00,
2013-04-22 17:22:00,62.2,38.8,30.45,NNE,17,2.0,9.0,42,0.00,,,0.00,VWS V14.01,2013-04-22 21:22:00,
2013-04-22 17:28:00,62.5,40.3,30.45,NNE,13,6.0,11.0,44,0.00,,,0.00,VWS V14.01,2013-04-22 21:28:00,
2013-04-22 17:30:00,61.6,37.7,30.46,ENE,65,0.0,11.0,41,0.00,,,0.00,VWS V14.01,2013-04-22 21:30:00,
2013-04-22 17:34:00,62.5,40.3,30.45,NE,51,7.0,13.0,44,0.00,,,0.00,VWS V14.01,2013-04-22 21:34:00,
2013-04-22 17:40:00,61.8,39.7,30.45,NE,51,1.0,13.0,44,0.00,,,0.00,VWS V14.01,2013-04-22 21:40:00,
2013-04-22 17:45:00,61.3,39.8,30.45,NNE,26,5.0,13.0,45,0.00,,,0.00,VWS V14.01,2013-04-22 21:45:00,
2013-04-22 17:51:00,61.2,39.7,30.45,NE,38,0.0,13.0,45,0.00,,,0.00,VWS V14.01,2013-04-22 21:51:00,
2013-04-22 17:57:00,61.2,40.3,30.45,NE,45,3.0,13.0,46,0.00,,,0.00,VWS V14.01,2013-04-22 21:57:00,
2013-04-22 18:00:00,61.7,39.6,30.45,NE,37,2.0,12.0,44,0.00,,,0.00,VWS V14.01,2013-04-22 22:00:00,
2013-04-22 18:03:00,61.2,40.3,30.45,ENE,74,3.0,13.0,46,0.00,,,0.00,VWS V14.01,2013-04-22 22:03:00,
2013-04-22 18:08:00,61.1,39.6,30.44,ENE,65,0.0,5.0,45,0.00,,,0.00,VWS V14.01,2013-04-22 22:08:00,
2013-04-22 18:14:00,61.0,40.1,30.44,NE,43,8.0,13.0,46,0.00,,,0.00,VWS V14.01,2013-04-22 22:14:00,
2013-04-22 18:20:00,61.1,41.8,30.44,East,82,5.0,13.0,49,0.00,,,0.00,VWS V14.01,2013-04-22 22:20:00,
2013-04-22 18:26:00,60.8,39.9,30.44,ENE,68,0.0,13.0,46,0.00,,,0.00,VWS V14.01,2013-04-22 22:26:00,
2013-04-22 18:30:00,62.5,38.5,30.45,NNE,30,6.0,13.0,41,0.00,,,0.00,VWS V14.01,2013-04-22 22:30:00,
2013-04-22 18:32:00,60.5,40.7,30.44,NE,52,2.0,13.0,48,0.00,,,0.00,VWS V14.01,2013-04-22 22:32:00,
2013-04-22 18:38:00,60.0,40.3,30.44,ENE,67,5.0,5.0,48,0.00,,,0.00,VWS V14.01,2013-04-22 22:38:00,
2013-04-22 18:43:00,59.6,39.4,30.44,East,81,2.0,6.0,47,0.00,,,0.00,VWS V14.01,2013-04-22 22:43:00,
2013-04-22 18:49:00,59.4,40.8,30.44,NE,40,0.0,6.0,50,0.00,,,0.00,VWS V14.01,2013-04-22 22:49:00,
2013-04-22 18:55:00,59.1,40.0,30.44,NE,54,4.0,6.0,49,0.00,,,0.00,VWS V14.01,2013-04-22 22:55:00,
2013-04-22 19:00:00,61.2,39.7,30.44,East,88,0.0,13.0,45,0.00,,,0.00,VWS V14.01,2013-04-22 23:00:00,
2013-04-22 19:01:00,59.0,40.4,30.44,ENE,71,4.0,7.0,50,0.00,,,0.00,VWS V14.01,2013-04-22 23:01:00,
2013-04-22 19:06:00,58.8,40.7,30.44,ENE,63,2.0,2.0,51,0.00,,,0.00,VWS V14.01,2013-04-22 23:06:00,
2013-04-22 19:12:00,58.6,40.0,30.44,NE,55,5.0,9.0,50,0.00,,,0.00,VWS V14.01,2013-04-22 23:12:00,
2013-04-22 19:18:00,58.4,40.9,30.45,NE,49,0.0,9.0,52,0.00,,,0.00,VWS V14.01,2013-04-22 23:18:00,
2013-04-22 19:24:00,58.2,40.7,30.45,NE,50,2.0,9.0,52,0.00,,,0.00,VWS V14.01,2013-04-22 23:24:00,
2013-04-22 19:29:00,57.9,39.9,30.45,East,79,2.0,10.0,51,0.00,,,0.00,VWS V14.01,2013-04-22 23:29:00,
2013-04-22 19:30:00,60.3,40.0,30.44,NNE,25,4.0,13.0,47,0.00,,,0.00,VWS V14.01,2013-04-22 23:30:00,
2013-04-22 19:35:00,57.7,40.2,30.45,ENE,61,2.0,10.0,52,0.00,,,0.00,VWS V14.01,2013-04-22 23:35:00,
2013-04-22 19:41:00,57.5,40.5,30.45,ENE,67,3.0,11.0,53,0.00,,,0.00,VWS V14.01,2013-04-22 23:41:00,
2013-04-22 19:47:00,57.3,40.3,30.45,ENE,65,3.0,11.0,53,0.00,,,0.00,VWS V14.01,2013-04-22 23:47:00,
2013-04-22 19:53:00,57.1,41.1,30.45,ENE,75,4.0,11.0,55,0.00,,,0.00,VWS V14.01,2013-04-22 23:53:00,
2013-04-22 19:58:00,57.0,41.0,30.45,ENE,61,0.0,11.0,55,0.00,,,0.00,VWS V14.01,2013-04-22 23:58:00,
2013-04-22 20:00:00,58.9,39.8,30.44,ENE,69,2.0,7.0,49,0.00,,,0.00,VWS V14.01,2013-04-23 00:00:00,
2013-04-22 20:04:00,56.8,41.3,30.46,NE,44,0.0,11.0,56,0.00,,,0.00,VWS V14.01,2013-04-23 00:04:00,
2013-04-22 20:10:00,56.6,41.1,30.46,East,94,0.0,7.0,56,0.00,,,0.00,VWS V14.01,2013-04-23 00:10:00,
2013-04-22 20:16:00,56.5,41.0,30.46,ENE,57,4.0,8.0,56,0.00,,,0.00,VWS V14.01,2013-04-23 00:16:00,
2013-04-22 20:22:00,56.3,40.4,30.46,NE,56,3.0,8.0,55,0.00,,,0.00,VWS V14.01,2013-04-23 00:22:00,
2013-04-22 20:27:00,56.1,40.2,30.47,ENE,71,0.0,8.0,55,0.00,,,0.00,VWS V14.01,2013-04-23 00:27:00,
2013-04-22 20:30:00,57.7,40.2,30.45,ENE,61,2.0,10.0,52,0.00,,,0.00,VWS V14.01,2013-04-23 00:30:00,
2013-04-22 20:33:00,55.9,40.9,30.46,NE,45,2.0,9.0,57,0.00,,,0.00,VWS V14.01,2013-04-23 00:33:00,
2013-04-22 20:39:00,55.8,40.8,30.47,NE,36,0.0,6.0,57,0.00,,,0.00,VWS V14.01,2013-04-23 00:39:00,
2013-04-22 20:45:00,55.6,41.1,30.47,ENE,65,0.0,9.0,58,0.00,,,0.00,VWS V14.01,2013-04-23 00:45:00,
2013-04-22 20:51:00,55.4,40.9,30.47,ESE,110,0.0,9.0,58,0.00,,,0.00,VWS V14.01,2013-04-23 00:51:00,
2013-04-22 20:57:00,55.2,41.1,30.47,NE,42,0.0,9.0,59,0.00,,,0.00,VWS V14.01,2013-04-23 00:57:00,
2013-04-22 21:00:00,56.7,41.2,30.46,ENE,77,0.0,11.0,56,0.00,,,0.00,VWS V14.01,2013-04-23 01:00:00,
2013-04-22 21:02:00,55.0,41.0,30.47,East,88,0.0,14.0,59,0.00,,,0.00,VWS V14.01,2013-04-23 01:02:00,
2013-04-22 21:08:00,54.9,40.9,30.47,ENE,67,0.0,9.0,59,0.00,,,0.00,VWS V14.01,2013-04-23 01:08:00,
2013-04-22 21:14:00,54.7,41.1,30.47,ENE,72,2.0,9.0,60,0.00,,,0.00,VWS V14.01,2013-04-23 01:14:00,
2013-04-22 21:20:00,54.6,41.0,30.48,ENE,67,0.0,9.0,60,0.00,,,0.00,VWS V14.01,2013-04-23 01:20:00,
2013-04-22 21:26:00,54.5,40.9,30.48,ENE,63,0.0,9.0,60,0.00,,,0.00,VWS V14.01,2013-04-23 01:26:00,
2013-04-22 21:30:00,55.9,40.5,30.47,ENE,72,5.0,9.0,56,0.00,,,0.00,VWS V14.01,2013-04-23 01:30:00,
2013-04-22 21:32:00,54.4,41.2,30.48,ENE,76,1.0,9.0,61,0.00,,,0.00,VWS V14.01,2013-04-23 01:32:00,
2013-04-22 21:38:00,54.2,41.5,30.48,NE,44,0.0,4.0,62,0.00,,,0.00,VWS V14.01,2013-04-23 01:38:00,
2013-04-22 21:43:00,54.1,41.4,30.48,NE,48,0.0,4.0,62,0.00,,,0.00,VWS V14.01,2013-04-23 01:43:00,
2013-04-22 21:49:00,54.0,41.3,30.48,ENE,69,0.0,7.0,62,0.00,,,0.00,VWS V14.01,2013-04-23 01:49:00,
2013-04-22 21:55:00,53.9,41.2,30.48,NE,47,0.0,7.0,62,0.00,,,0.00,VWS V14.01,2013-04-23 01:55:00,
2013-04-22 22:00:00,53.8,41.1,30.48,ENE,65,0.0,7.0,62,0.00,,,0.00,VWS V14.01,2013-04-23 02:00:00,
2013-04-22 22:06:00,53.7,41.4,30.48,ESE,115,0.0,5.0,63,0.00,,,0.00,VWS V14.01,2013-04-23 02:06:00,
2013-04-22 22:12:00,53.7,41.8,30.48,ENE,61,0.0,5.0,64,0.00,,,0.00,VWS V14.01,2013-04-23 02:12:00,
2013-04-22 22:18:00,53.6,41.3,30.48,East,82,0.0,7.0,63,0.00,,,0.00,VWS V14.01,2013-04-23 02:18:00,
2013-04-22 22:23:00,53.5,41.6,30.48,ENE,67,0.0,7.0,64,0.00,,,0.00,VWS V14.01,2013-04-23 02:23:00,
2013-04-22 22:29:00,53.5,41.6,30.48,ENE,72,0.0,7.0,64,0.00,,,0.00,VWS V14.01,2013-04-23 02:29:00,
2013-04-22 22:30:00,53.4,41.9,30.48,ENE,68,1.0,7.0,65,0.00,,,0.00,VWS V14.01,2013-04-23 02:30:00,
2013-04-22 23:00:00,52.9,41.9,30.48,ENE,68,1.0,12.0,66,0.00,,,0.00,VWS V14.01,2013-04-23 03:00:00,
2013-04-22 23:30:00,52.7,42.1,30.47,ENE,68,2.0,12.0,67,0.00,,,0.00,VWS V14.01,2013-04-23 03:30:00,